Time;durP1;ratioP1;P1;durP2;ratioP2;P2;SDS_P1;SDS_P2;PMS_P1;PMS_P2;Temp;Humidity;BMP_temperature;BMP_pressure;BME280_temperature;BME280_humidity;BME280_pressure;Samples;Min_cycle;Max_cycle;Signal;HPM_P1;HPM_P2
2022/03/06 00:01:22;;;;;;;;;47.67;40.00;;;;;21.45;40.96;101774.11;112643;1245;19083;-86
2022/03/06 00:03:48;;;;;;;;;48.33;40.00;;;;;21.45;40.88;101774.15;112665;1245;19590;-86
2022/03/06 00:06:14;;;;;;;;;45.00;39.67;;;;;21.45;40.92;101769.92;112603;1245;20253;-86
2022/03/06 00:08:40;;;;;;;;;46.00;40.00;;;;;21.47;40.81;101770.11;112658;1245;19024;-85
2022/03/06 00:11:06;;;;;;;;;47.33;42.00;;;;;21.47;40.76;101769.60;112629;1245;23677;-86
2022/03/06 00:13:33;;;;;;;;;50.33;40.00;;;;;21.47;40.81;101767.05;112604;1244;19971;-88
2022/03/06 00:15:59;;;;;;;;;45.00;40.67;;;;;21.47;40.69;101766.84;112628;1245;19271;-87
2022/03/06 00:18:25;;;;;;;;;46.33;40.00;;;;;21.48;40.80;101767.16;112632;1245;23729;-85
2022/03/06 00:20:51;;;;;;;;;45.00;39.67;;;;;21.46;40.67;101770.71;112623;1245;20058;-86
2022/03/06 00:23:17;;;;;;;;;52.00;42.00;;;;;21.46;40.70;101768.39;112629;1245;19095;-86
2022/03/06 00:25:43;;;;;;;;;47.00;40.00;;;;;21.46;40.63;101766.96;112650;1245;22131;-86
2022/03/06 00:28:08;;;;;;;;;47.33;42.67;;;;;21.46;40.72;101773.13;112658;1245;20077;-85
2022/03/06 00:30:34;;;;;;;;;41.33;36.33;;;;;21.45;40.57;101769.72;112615;1245;19277;-83
2022/03/06 00:33:00;;;;;;;;;46.00;40.50;;;;;21.45;40.72;101766.14;112618;1245;19362;-85
2022/03/06 00:35:28;;;;;;;;;47.67;40.67;;;;;21.44;40.56;101763.84;112649;1244;20004;-85
2022/03/06 00:37:54;;;;;;;;;45.00;41.33;;;;;21.44;40.50;101766.09;112590;1245;19466;-86
2022/03/06 00:40:20;;;;;;;;;44.00;40.00;;;;;21.45;40.65;101770.16;112687;1245;21647;-85
2022/03/06 00:42:46;;;;;;;;;47.00;41.00;;;;;21.45;40.74;101763.98;112632;1245;20012;-86
2022/03/06 00:45:12;;;;;;;;;57.33;43.67;;;;;21.45;40.52;101765.96;112633;1244;19177;-86
2022/03/06 00:47:38;;;;;;;;;44.00;40.00;;;;;21.44;40.69;101764.93;112660;1245;23095;-86
2022/03/06 00:50:04;;;;;;;;;53.50;40.50;;;;;21.45;40.73;101765.42;112621;1245;22298;-86
2022/03/06 00:52:29;;;;;;;;;48.00;40.67;;;;;21.44;40.40;101761.92;112638;1245;20059;-83
2022/03/06 00:54:55;;;;;;;;;47.67;41.67;;;;;21.43;40.51;101764.31;112586;1245;19244;-85
2022/03/06 00:57:21;;;;;;;;;48.33;41.33;;;;;21.43;40.72;101763.81;112584;1245;23750;-85
2022/03/06 00:59:47;;;;;;;;;51.00;43.00;;;;;21.43;40.59;101765.20;112657;1245;19125;-88
2022/03/06 01:02:13;;;;;;;;;54.00;41.67;;;;;21.44;40.47;101761.59;112641;1245;19906;-89
2022/03/06 01:04:40;;;;;;;;;57.33;43.67;;;;;21.43;40.59;101759.64;112618;1245;20163;-86
2022/03/06 01:07:05;;;;;;;;;51.33;42.67;;;;;21.43;40.53;101757.66;112644;1245;19520;-86
2022/03/06 01:09:31;;;;;;;;;48.25;41.75;;;;;21.43;40.51;101755.28;111997;1245;758795;-86
2022/03/06 01:11:57;;;;;;;;;51.50;43.00;;;;;21.42;40.59;101753.37;112644;1245;22976;-86
2022/03/06 01:14:23;;;;;;;;;45.00;41.67;;;;;21.42;40.41;101750.64;112597;1245;19106;-85
2022/03/06 01:16:49;;;;;;;;;48.67;43.33;;;;;21.42;40.28;101747.20;112486;1245;25002;-86
2022/03/06 01:19:15;;;;;;;;;49.00;40.50;;;;;21.43;40.53;101747.64;112612;1244;21014;-85
2022/03/06 01:21:41;;;;;;;;;50.67;42.00;;;;;21.42;40.51;101747.34;112504;1244;22079;-85
2022/03/06 01:24:07;;;;;;;;;49.33;40.00;;;;;21.43;40.50;101746.90;112552;1245;19820;-85
2022/03/06 01:26:32;;;;;;;;;48.00;40.67;;;;;21.43;40.35;101745.09;112504;1244;20027;-86
2022/03/06 01:28:58;;;;;;;;;53.00;44.00;;;;;21.44;40.32;101750.64;112602;1244;19052;-86
2022/03/06 01:31:24;;;;;;;;;53.00;42.00;;;;;21.43;40.38;101751.81;112659;1245;21692;-85
2022/03/06 01:33:50;;;;;;;;;47.00;41.00;;;;;21.44;40.49;101750.82;112674;1244;21291;-85
2022/03/06 01:36:16;;;;;;;;;58.00;42.33;;;;;21.43;40.21;101744.55;112618;1245;19026;-85
2022/03/06 01:38:42;;;;;;;;;52.33;42.33;;;;;21.43;40.22;101743.86;112761;1245;19149;-85
2022/03/06 01:41:08;;;;;;;;;49.67;43.33;;;;;21.43;40.43;101743.63;112632;1245;20013;-85
2022/03/06 01:43:34;;;;;;;;;49.33;43.33;;;;;21.43;40.40;101741.13;112649;1245;22064;-86
2022/03/06 01:46:00;;;;;;;;;49.50;41.50;;;;;21.44;40.20;101742.66;112635;1245;20937;-86
2022/03/06 01:48:25;;;;;;;;;54.00;43.00;;;;;21.44;40.24;101742.49;112638;1245;22685;-85
2022/03/06 01:50:51;;;;;;;;;52.33;44.00;;;;;21.42;40.13;101741.54;112622;1245;19027;-85
2022/03/06 01:53:17;;;;;;;;;54.67;43.33;;;;;21.43;40.25;101741.95;112610;1244;20732;-85
2022/03/06 01:55:43;;;;;;;;;59.00;43.00;;;;;21.43;40.25;101738.06;112627;1245;20098;-85
2022/03/06 01:58:09;;;;;;;;;54.00;42.00;;;;;21.42;40.25;101737.59;112619;1245;19114;-86
2022/03/06 02:00:35;;;;;;;;;56.00;43.00;;;;;21.42;40.13;101738.44;112591;1244;19568;-85
2022/03/06 02:03:01;;;;;;;;;49.00;41.67;;;;;21.42;40.13;101735.02;112610;1244;23257;-84
2022/03/06 02:05:27;;;;;;;;;54.67;44.00;;;;;21.42;40.23;101738.50;112656;1245;19087;-85
2022/03/06 02:07:52;;;;;;;;;52.00;42.33;;;;;21.43;40.24;101738.20;112634;1244;21827;-85
2022/03/06 02:10:18;;;;;;;;;50.00;43.00;;;;;21.42;40.12;101734.45;112618;1244;19949;-85
2022/03/06 02:12:44;;;;;;;;;51.33;44.00;;;;;21.44;40.03;101730.80;112637;1244;22970;-85
2022/03/06 02:15:10;;;;;;;;;53.00;44.00;;;;;21.42;40.29;101730.25;112623;1245;24766;-87
2022/03/06 02:17:37;;;;;;;;;51.33;44.33;;;;;21.43;40.09;101730.50;112632;1245;20111;-85
2022/03/06 02:20:03;;;;;;;;;48.00;41.00;;;;;21.43;40.12;101730.02;112618;1244;19437;-85
2022/03/06 02:22:29;;;;;;;;;58.00;46.00;;;;;21.43;40.24;101727.33;112602;1245;22550;-85
2022/03/06 02:24:55;;;;;;;;;51.67;44.67;;;;;21.43;40.25;101730.91;112613;1245;21899;-85
2022/03/06 02:27:21;;;;;;;;;52.00;43.33;;;;;21.42;40.01;101722.65;112630;1244;19141;-85
2022/03/06 02:29:47;;;;;;;;;60.00;46.00;;;;;21.42;40.21;101725.34;112602;1245;19301;-86
2022/03/06 02:32:13;;;;;;;;;59.33;46.00;;;;;21.43;40.33;101727.32;112602;1245;23093;-85
2022/03/06 02:34:39;;;;;;;;;50.00;42.00;;;;;21.42;40.30;101722.67;112623;1245;19113;-85
2022/03/06 02:37:04;;;;;;;;;58.67;46.33;;;;;21.42;40.31;101718.11;112635;1245;19329;-85
2022/03/06 02:39:30;;;;;;;;;60.67;46.00;;;;;21.41;40.01;101719.07;112629;1245;21574;-86
2022/03/06 02:41:56;;;;;;;;;52.67;44.33;;;;;21.41;40.10;101713.67;112636;1245;19095;-86
2022/03/06 02:44:22;;;;;;;;;55.00;44.00;;;;;21.41;40.04;101714.35;112587;1245;19271;-86
2022/03/06 02:46:48;;;;;;;;;56.33;45.67;;;;;21.41;40.00;101712.73;112636;1245;21510;-86
2022/03/06 02:49:14;;;;;;;;;59.33;46.00;;;;;21.42;39.95;101710.51;112604;1245;21087;-85
2022/03/06 02:51:40;;;;;;;;;57.33;45.33;;;;;21.41;40.00;101709.71;112612;1245;19392;-86
2022/03/06 02:54:06;;;;;;;;;52.50;44.00;;;;;21.40;40.15;101711.34;112626;1245;22859;-86
2022/03/06 02:56:32;;;;;;;;;53.00;45.00;;;;;21.39;39.91;101706.73;112626;1245;23808;-85
2022/03/06 02:58:58;;;;;;;;;57.33;43.67;;;;;21.39;40.01;101707.13;112640;1245;19525;-85
2022/03/06 03:01:24;;;;;;;;;53.00;44.00;;;;;21.40;39.96;101710.10;112588;1245;21653;-85
2022/03/06 03:03:50;;;;;;;;;51.67;44.00;;;;;21.41;40.07;101708.59;112612;1244;19317;-86
2022/03/06 03:06:16;;;;;;;;;55.33;44.33;;;;;21.39;40.10;101706.01;112657;1245;23312;-86
2022/03/06 03:08:42;;;;;;;;;56.33;43.33;;;;;21.39;40.07;101703.34;112647;1245;20153;-86
2022/03/06 03:11:08;;;;;;;;;55.33;47.00;;;;;21.38;40.21;101705.18;112665;1244;22255;-86
2022/03/06 03:13:34;;;;;;;;;58.00;45.33;;;;;21.39;39.99;101704.98;112628;1245;19627;-86
2022/03/06 03:16:00;;;;;;;;;55.00;43.67;;;;;21.39;39.90;101700.58;112632;1244;20085;-87
2022/03/06 03:18:26;;;;;;;;;61.00;45.00;;;;;21.39;39.81;101697.14;112651;1243;20504;-85
2022/03/06 03:20:52;;;;;;;;;55.00;46.00;;;;;21.40;39.96;101699.40;112650;1245;22234;-85
2022/03/06 03:23:18;;;;;;;;;54.00;44.00;;;;;21.39;40.03;101698.17;112632;1245;20397;-85
2022/03/06 03:25:44;;;;;;;;;60.33;47.33;;;;;21.40;39.81;101700.69;112652;1244;19041;-85
2022/03/06 03:28:10;;;;;;;;;58.33;44.33;;;;;21.40;39.88;101698.68;112664;1245;19271;-86
2022/03/06 03:30:35;;;;;;;;;61.67;44.67;;;;;21.40;40.03;101698.09;112624;1245;23219;-85
2022/03/06 03:33:01;;;;;;;;;52.67;43.00;;;;;21.40;39.80;101699.74;112654;1245;19379;-85
2022/03/06 03:35:27;;;;;;;;;59.00;44.00;;;;;21.40;40.03;101697.05;112644;1245;19528;-85
2022/03/06 03:37:53;;;;;;;;;50.50;42.50;;;;;21.40;39.96;101700.85;112653;1245;22920;-85
2022/03/06 03:40:19;;;;;;;;;58.00;46.00;;;;;21.37;39.85;101695.51;112632;1243;19090;-85
2022/03/06 03:42:45;;;;;;;;;54.33;44.00;;;;;21.40;40.01;101699.77;112618;1245;20857;-86
2022/03/06 03:45:11;;;;;;;;;52.67;44.33;;;;;21.39;40.00;101696.90;112660;1245;20142;-85
2022/03/06 03:47:37;;;;;;;;;55.00;47.00;;;;;21.39;39.85;101698.20;112666;1244;20441;-86
2022/03/06 03:50:02;;;;;;;;;53.33;43.00;;;;;21.40;39.87;101700.86;112650;1245;19980;-85
2022/03/06 03:52:28;;;;;;;;;53.33;44.33;;;;;21.40;39.89;101704.10;112657;1244;23114;-85
2022/03/06 03:54:54;;;;;;;;;52.33;44.00;;;;;21.41;39.77;101704.97;112657;1244;19412;-86
2022/03/06 03:57:23;;;;;;;;;56.33;46.67;;;;;21.40;39.84;101704.71;112652;1245;23654;-85
2022/03/06 03:59:49;;;;;;;;;55.00;44.33;;;;;21.40;39.84;101704.84;112689;1245;20183;-85
2022/03/06 04:02:15;;;;;;;;;59.50;46.00;;;;;21.41;39.76;101710.73;112694;1245;19083;-85
2022/03/06 04:04:41;;;;;;;;;48.00;40.33;;;;;21.40;39.83;101706.52;112622;1245;19301;-85
2022/03/06 04:07:07;;;;;;;;;45.67;42.00;;;;;21.39;39.71;101707.98;112663;1245;20155;-86
2022/03/06 04:09:33;;;;;;;;;55.50;44.00;;;;;21.39;39.69;101710.54;112683;1245;19240;-85
2022/03/06 04:11:58;;;;;;;;;47.00;42.00;;;;;21.39;39.85;101710.16;112645;1245;21001;-86
2022/03/06 04:14:24;;;;;;;;;57.00;45.67;;;;;21.40;39.81;101711.05;112673;1244;22580;-85
2022/03/06 04:16:50;;;;;;;;;54.00;45.50;;;;;21.39;39.64;101714.05;112664;1245;23726;-86
2022/03/06 04:19:16;;;;;;;;;51.67;42.33;;;;;21.39;39.74;101712.21;112656;1245;19398;-85
2022/03/06 04:21:42;;;;;;;;;51.00;43.33;;;;;21.39;39.81;101714.02;112611;1245;21764;-85
2022/03/06 04:24:08;;;;;;;;;54.67;43.33;;;;;21.39;39.67;101714.63;112659;1245;19031;-85
2022/03/06 04:26:34;;;;;;;;;52.00;45.33;;;;;21.39;39.90;101712.05;112635;1245;19489;-85
2022/03/06 04:29:00;;;;;;;;;53.67;44.00;;;;;21.39;39.94;101712.62;112640;1244;22132;-87
2022/03/06 04:31:26;;;;;;;;;53.00;44.00;;;;;21.39;40.01;101709.73;112623;1245;19236;-86
2022/03/06 04:33:52;;;;;;;;;55.33;43.33;;;;;21.38;39.87;101708.36;112606;1245;19946;-86
2022/03/06 04:36:17;;;;;;;;;52.33;42.67;;;;;21.39;39.96;101704.81;112617;1245;19972;-86
2022/03/06 04:38:43;;;;;;;;;47.67;43.00;;;;;21.38;39.74;101704.88;112682;1245;22295;-86
2022/03/06 04:41:09;;;;;;;;;46.33;40.00;;;;;21.38;39.91;101702.18;112719;1244;19719;-86
2022/03/06 04:43:35;;;;;;;;;50.67;41.00;;;;;21.38;39.89;101702.70;112658;1245;21314;-86
2022/03/06 04:46:01;;;;;;;;;45.00;40.00;;;;;21.38;39.99;101705.97;112661;1245;23710;-87
2022/03/06 04:48:27;;;;;;;;;52.67;42.33;;;;;21.38;39.95;101707.06;112659;1244;19421;-87
2022/03/06 04:50:53;;;;;;;;;52.33;40.33;;;;;21.38;39.70;101710.67;112652;1245;21272;-86
2022/03/06 04:53:19;;;;;;;;;53.67;43.00;;;;;21.37;39.69;101705.35;112622;1245;19997;-87
2022/03/06 04:55:45;;;;;;;;;54.00;42.67;;;;;21.37;39.88;101703.00;112598;1244;22198;-86
2022/03/06 04:58:11;;;;;;;;;52.00;42.50;;;;;21.37;39.67;101702.92;112628;1244;21213;-86
2022/03/06 05:00:36;;;;;;;;;48.00;40.00;;;;;21.37;39.61;101703.38;112617;1245;23855;-86
2022/03/06 05:03:02;;;;;;;;;47.67;40.00;;;;;21.37;39.76;101699.77;112632;1245;19688;-87
2022/03/06 05:05:28;;;;;;;;;51.33;41.00;;;;;21.36;39.89;101695.39;112603;1244;20231;-87
2022/03/06 05:07:54;;;;;;;;;48.67;43.33;;;;;21.37;39.79;101695.95;112605;1244;19045;-87
2022/03/06 05:10:20;;;;;;;;;53.67;42.33;;;;;21.35;39.83;101698.77;112626;1244;19367;-85
2022/03/06 05:12:46;;;;;;;;;49.00;43.67;;;;;21.35;39.85;101695.34;112616;1245;19929;-86
2022/03/06 05:15:12;;;;;;;;;48.00;42.00;;;;;21.35;39.94;101698.63;112600;1245;18928;-85
2022/03/06 05:17:38;;;;;;;;;48.00;41.00;;;;;21.37;40.01;101694.59;112612;1244;20047;-87
2022/03/06 05:20:04;;;;;;;;;44.00;39.00;;;;;21.39;39.96;101700.59;112602;1245;23882;-88
2022/03/06 05:22:30;;;;;;;;;43.33;36.33;;;;;21.40;40.09;101699.23;112631;1244;22113;-87
2022/03/06 05:24:57;;;;;;;;;49.50;40.50;;;;;21.41;40.04;101696.39;112640;1245;22484;-89
2022/03/06 05:27:23;;;;;;;;;48.50;43.00;;;;;21.41;40.21;101694.00;112599;1245;20299;-87
2022/03/06 05:29:49;;;;;;;;;44.00;40.00;;;;;21.40;40.40;101691.77;112622;1245;20803;-88
2022/03/06 05:32:15;;;;;;;;;41.50;37.50;;;;;21.40;40.25;101686.67;112597;1245;19909;-87
2022/03/06 05:34:41;;;;;;;;;44.67;40.67;;;;;21.41;39.97;101689.60;112584;1245;21599;-88
2022/03/06 05:37:07;;;;;;;;;41.00;35.00;;;;;21.41;40.12;101689.64;112587;1244;22573;-86
2022/03/06 05:39:33;;;;;;;;;44.33;36.67;;;;;21.40;40.06;101686.99;112605;1245;21486;-88
2022/03/06 05:41:59;;;;;;;;;43.00;38.50;;;;;21.40;40.22;101684.16;112628;1245;21656;-87
2022/03/06 05:44:25;;;;;;;;;45.50;40.00;;;;;21.38;40.14;101679.58;112614;1245;23117;-90
2022/03/06 05:46:50;;;;;;;;;40.00;36.50;;;;;21.40;40.15;101675.75;112608;1245;22662;-90
2022/03/06 05:49:16;;;;;;;;;48.33;39.67;;;;;21.41;40.26;101679.27;112625;1245;20119;-88
2022/03/06 05:51:42;;;;;;;;;41.00;40.00;;;;;21.40;40.21;101677.35;112612;1245;23028;-88
2022/03/06 05:54:08;;;;;;;;;44.33;39.00;;;;;21.40;40.15;101678.27;112609;1245;19289;-88
2022/03/06 05:56:34;;;;;;;;;49.00;39.50;;;;;21.41;40.01;101678.79;112605;1245;20002;-88
2022/03/06 05:59:00;;;;;;;;;40.50;37.50;;;;;21.39;40.18;101678.98;112590;1245;19678;-88
2022/03/06 06:01:29;;;;;;;;;48.00;40.00;;;;;21.40;40.17;101682.49;112593;1245;20137;-88
2022/03/06 06:03:55;;;;;;;;;48.00;39.00;;;;;21.40;39.94;101678.13;112592;1245;20209;-88
2022/03/06 06:06:21;;;;;;;;;42.67;39.00;;;;;21.40;39.92;101679.97;112611;1245;22605;-88
2022/03/06 06:08:47;;;;;;;;;42.00;36.50;;;;;21.40;40.03;101680.08;112629;1244;24273;-88
2022/03/06 06:11:12;;;;;;;;;45.00;39.50;;;;;21.40;39.95;101676.16;112627;1245;20175;-89
2022/03/06 06:13:38;;;;;;;;;39.00;35.50;;;;;21.39;40.10;101669.67;112612;1245;23123;-87
2022/03/06 06:16:04;;;;;;;;;40.00;36.00;;;;;21.39;39.98;101667.69;112453;1245;19541;-88
2022/03/06 06:18:31;;;;;;;;;39.50;35.50;;;;;21.38;39.97;101667.94;112596;1245;20003;-87
2022/03/06 06:20:57;;;;;;;;;49.00;40.33;;;;;21.39;39.83;101672.59;112617;1244;19530;-87
2022/03/06 06:23:23;;;;;;;;;40.50;36.50;;;;;21.38;39.81;101673.20;112586;1245;20683;-88
2022/03/06 06:25:48;;;;;;;;;40.50;35.00;;;;;21.39;39.94;101673.02;112646;1245;22578;-86
2022/03/06 06:28:14;;;;;;;;;44.00;40.00;;;;;21.39;39.68;101673.55;112594;1245;18929;-87
2022/03/06 06:30:40;;;;;;;;;43.67;36.33;;;;;21.36;39.94;101675.96;112603;1244;19510;-86
2022/03/06 06:33:06;;;;;;;;;43.33;39.33;;;;;21.39;39.79;101678.60;112669;1245;22012;-87
2022/03/06 06:35:34;;;;;;;;;40.67;39.33;;;;;21.38;39.99;101673.95;112641;1245;19280;-86
2022/03/06 06:38:00;;;;;;;;;44.00;36.33;;;;;21.36;40.18;101667.09;112634;1244;19651;-87
2022/03/06 06:40:26;;;;;;;;;44.33;39.33;;;;;21.39;39.93;101670.96;112616;1245;21469;-87
2022/03/06 06:42:51;;;;;;;;;43.00;37.50;;;;;21.38;40.21;101673.58;112598;1245;21664;-86
2022/03/06 06:45:17;;;;;;;;;42.50;36.50;;;;;21.39;40.05;101673.86;112637;1245;19275;-86
2022/03/06 06:47:43;;;;;;;;;50.67;42.67;;;;;21.40;40.10;101673.63;112640;1245;20012;-86
2022/03/06 06:50:09;;;;;;;;;40.00;36.00;;;;;21.41;40.02;101677.23;112652;1245;19289;-85
2022/03/06 06:52:35;;;;;;;;;38.50;35.50;;;;;21.43;40.05;101675.27;112643;1245;19290;-84
2022/03/06 06:55:01;;;;;;;;;39.33;35.00;;;;;21.47;39.90;101671.91;112625;1245;20142;-87
2022/03/06 06:57:27;;;;;;;;;40.50;35.00;;;;;21.47;40.30;101669.40;112635;1245;19159;-87
2022/03/06 06:59:53;;;;;;;;;42.50;35.50;;;;;21.50;40.42;101669.59;112621;1245;22007;-87
2022/03/06 07:02:19;;;;;;;;;35.00;33.00;;;;;21.53;40.41;101669.45;112592;1245;19953;-87
2022/03/06 07:04:45;;;;;;;;;44.00;37.50;;;;;21.50;40.54;101673.02;112581;1245;23940;-87
2022/03/06 07:07:11;;;;;;;;;36.50;33.50;;;;;21.52;40.75;101669.42;112664;1245;19322;-88
2022/03/06 07:09:36;;;;;;;;;35.50;32.00;;;;;21.56;40.88;101669.17;112600;1244;19943;-88
2022/03/06 07:12:03;;;;;;;;;39.00;33.00;;;;;21.57;40.89;101668.85;112545;1245;23056;-87
2022/03/06 07:14:29;;;;;;;;;34.33;32.33;;;;;21.61;41.08;101671.40;112639;1245;19627;-87
2022/03/06 07:16:55;;;;;;;;;40.00;35.50;;;;;21.65;40.84;101672.59;112588;1245;19900;-85
2022/03/06 07:19:21;;;;;;;;;36.00;33.50;;;;;21.68;41.65;101669.97;112632;1245;24243;-87
2022/03/06 07:21:47;;;;;;;;;34.00;31.50;;;;;21.70;41.70;101670.44;112664;1245;19284;-86
2022/03/06 07:24:13;;;;;;;;;41.50;33.00;;;;;21.71;41.81;101670.71;112654;1245;23434;-86
2022/03/06 07:26:39;;;;;;;;;41.67;34.67;;;;;21.71;42.32;101670.59;112654;1245;19113;-86
2022/03/06 07:29:04;;;;;;;;;38.00;34.00;;;;;21.72;42.55;101676.05;112645;1244;19203;-88
2022/03/06 07:31:30;;;;;;;;;36.00;34.00;;;;;21.74;43.43;101674.45;112635;1245;20235;-88
2022/03/06 07:33:56;;;;;;;;;40.50;29.50;;;;;21.76;43.69;101677.26;112623;1245;19135;-88
2022/03/06 07:36:22;;;;;;;;;30.50;28.00;;;;;21.77;44.34;101677.35;112614;1244;23261;-87
2022/03/06 07:38:48;;;;;;;;;33.00;29.00;;;;;21.79;44.85;101676.53;112591;1245;23016;-88
2022/03/06 07:41:14;;;;;;;;;34.50;30.00;;;;;21.82;45.74;101681.21;112593;1245;19606;-87
2022/03/06 07:43:40;;;;;;;;;39.00;32.50;;;;;21.83;46.21;101681.08;112623;1244;19319;-84
2022/03/06 07:46:06;;;;;;;;;36.00;32.00;;;;;21.84;46.90;101683.56;112528;1245;20148;-86
2022/03/06 07:48:32;;;;;;;;;37.00;32.00;;;;;21.84;46.81;101691.48;112495;1245;19665;-88
2022/03/06 07:50:58;;;;;;;;;34.00;30.00;;;;;21.87;47.17;101690.42;112584;1245;19431;-86
2022/03/06 07:53:24;;;;;;;;;37.50;30.00;;;;;21.87;47.30;101694.80;112590;1244;23000;-87
2022/03/06 07:55:50;;;;;;;;;32.50;31.00;;;;;21.87;47.27;101695.00;112604;1243;19018;-87
2022/03/06 07:58:15;;;;;;;;;37.00;31.00;;;;;21.81;46.66;101687.60;112665;1244;20145;-86
2022/03/06 08:00:41;;;;;;;;;38.00;33.00;;;;;21.85;46.35;101696.50;112662;1244;22537;-86
2022/03/06 08:03:07;;;;;;;;;29.00;29.00;;;;;21.80;45.68;101693.41;112661;1245;19025;-85
2022/03/06 08:05:33;;;;;;;;;32.50;30.50;;;;;21.77;46.22;101687.86;112674;1245;23747;-87
2022/03/06 08:07:59;;;;;;;;;34.00;32.00;;;;;21.77;46.14;101689.19;112637;1245;20128;-87
2022/03/06 08:10:25;;;;;;;;;37.50;32.00;;;;;21.75;45.57;101683.91;112652;1245;21702;-89
2022/03/06 08:12:51;;;;;;;;;37.00;32.00;;;;;21.78;45.23;101686.30;112665;1245;22798;-86
2022/03/06 08:15:17;;;;;;;;;38.50;32.50;;;;;21.80;45.01;101689.36;112615;1245;21121;-85
2022/03/06 08:17:43;;;;;;;;;33.50;32.00;;;;;21.81;45.15;101687.11;112628;1245;24264;-87
2022/03/06 08:20:09;;;;;;;;;33.00;33.00;;;;;21.77;45.04;101686.65;112626;1244;19448;-86
2022/03/06 08:22:35;;;;;;;;;33.67;29.33;;;;;21.76;45.39;101694.76;112665;1245;20283;-85
2022/03/06 08:25:00;;;;;;;;;35.50;28.50;;;;;21.73;45.78;101691.95;112642;1244;21648;-87
2022/03/06 08:27:26;;;;;;;;;31.50;26.00;;;;;21.71;45.88;101695.28;112630;1245;19292;-86
2022/03/06 08:29:52;;;;;;;;;33.00;32.00;;;;;21.68;46.12;101696.66;112697;1244;19893;-85
2022/03/06 08:32:18;;;;;;;;;29.50;25.50;;;;;21.66;45.83;101700.66;112640;1244;19043;-86
2022/03/06 08:34:44;;;;;;;;;34.50;28.50;;;;;21.64;45.51;101700.20;112576;1244;22511;-88
2022/03/06 08:37:10;;;;;;;;;33.50;32.00;;;;;21.67;45.46;101700.27;112640;1244;20280;-88
2022/03/06 08:39:36;;;;;;;;;41.00;36.00;;;;;21.72;45.43;101698.02;112566;1245;19230;-88
2022/03/06 08:42:02;;;;;;;;;51.00;42.00;;;;;21.76;45.23;101696.71;112556;1245;22876;-91
2022/03/06 08:44:28;;;;;;;;;84.00;60.33;;;;;21.78;44.50;101695.05;112397;1245;20013;-90
2022/03/06 08:46:54;;;;;;;;;71.33;56.00;;;;;21.81;44.86;101699.60;112584;1244;19799;-87
2022/03/06 08:49:20;;;;;;;;;85.00;60.67;;;;;21.82;44.94;101694.42;112393;1246;19460;-88
2022/03/06 08:51:46;;;;;;;;;92.33;68.33;;;;;21.84;44.62;101695.75;112581;1245;20178;-87
2022/03/06 08:54:11;;;;;;;;;91.00;69.33;;;;;21.82;45.17;101697.88;112633;1244;23718;-88
2022/03/06 08:56:37;;;;;;;;;90.50;65.50;;;;;21.86;45.36;101696.53;112602;1245;19133;-88
2022/03/06 08:59:03;;;;;;;;;85.33;63.00;;;;;21.90;45.46;101700.01;112621;1245;19970;-88
2022/03/06 09:01:29;;;;;;;;;87.67;65.33;;;;;21.86;45.66;101699.84;112590;1244;19626;-87
2022/03/06 09:03:55;;;;;;;;;80.67;59.67;;;;;21.93;45.77;101697.50;112566;1245;23270;-89
2022/03/06 09:06:21;;;;;;;;;72.00;57.33;;;;;22.21;45.04;101702.59;112500;1245;21147;-87
2022/03/06 09:08:47;;;;;;;;;74.00;53.67;;;;;22.30;44.54;101701.18;112629;1245;22199;-88
2022/03/06 09:11:13;;;;;;;;;70.00;51.00;;;;;22.30;44.33;101703.81;112653;1245;22489;-89
2022/03/06 09:13:39;;;;;;;;;65.67;50.33;;;;;22.22;44.00;101702.46;112546;1244;24822;-88
2022/03/06 09:16:05;;;;;;;;;61.67;47.00;;;;;22.10;44.30;101700.37;112579;1244;19728;-89
2022/03/06 09:18:30;;;;;;;;;67.67;50.67;;;;;22.07;44.55;101701.44;112565;1244;19286;-89
2022/03/06 09:20:56;;;;;;;;;60.33;47.33;;;;;22.04;45.01;101699.33;112626;1245;22255;-85
2022/03/06 09:23:22;;;;;;;;;62.33;47.33;;;;;22.05;45.01;101699.99;112571;1245;21034;-89
2022/03/06 09:25:48;;;;;;;;;56.67;46.00;;;;;22.06;45.45;101702.42;112665;1245;19426;-89
2022/03/06 09:28:15;;;;;;;;;62.00;49.50;;;;;22.07;45.61;101701.10;112789;1245;20867;-90
2022/03/06 09:30:42;;;;;;;;;61.00;48.00;;;;;22.04;45.53;101695.41;112752;1244;19370;-87
2022/03/06 09:33:08;;;;;;;;;67.67;47.67;;;;;22.05;45.89;101697.09;112740;1245;19919;-89
2022/03/06 09:35:34;;;;;;;;;54.00;42.67;;;;;22.07;45.62;101694.03;112747;1244;20147;-88
2022/03/06 09:38:01;;;;;;;;;55.50;46.00;;;;;22.01;44.68;101691.21;112686;1245;19191;-87
2022/03/06 09:40:27;;;;;;;;;56.67;45.00;;;;;21.95;44.92;101687.45;112688;1245;19816;-87
2022/03/06 09:42:53;;;;;;;;;48.50;42.00;;;;;21.91;45.09;101689.95;112630;1245;20303;-85
2022/03/06 09:45:19;;;;;;;;;48.00;40.00;;;;;21.88;45.22;101684.30;112622;1245;23311;-88
2022/03/06 09:47:45;;;;;;;;;58.67;45.00;;;;;21.84;45.37;101681.92;112716;1244;19934;-88
2022/03/06 09:50:11;;;;;;;;;52.33;42.33;;;;;21.87;45.08;101685.70;112543;1244;20502;-86
2022/03/06 09:52:37;;;;;;;;;52.00;42.00;;;;;21.86;45.29;101684.36;112550;1245;20866;-87
2022/03/06 09:55:03;;;;;;;;;47.00;41.50;;;;;21.86;45.15;101682.23;112731;1244;21105;-89
2022/03/06 09:57:29;;;;;;;;;51.33;37.33;;;;;21.85;45.24;101679.23;112856;1245;22583;-88
2022/03/06 09:59:55;;;;;;;;;49.00;40.00;;;;;21.87;44.87;101677.40;113669;1245;19657;-88
2022/03/06 10:02:21;;;;;;;;;55.67;42.00;;;;;21.91;44.98;101677.18;112815;1244;20556;-86
2022/03/06 10:04:47;;;;;;;;;45.00;38.00;;;;;21.95;45.19;101677.42;112433;1245;20118;-88
2022/03/06 10:07:12;;;;;;;;;50.50;39.00;;;;;21.95;44.98;101673.80;112590;1245;23394;-88
2022/03/06 10:09:38;;;;;;;;;47.67;39.33;;;;;21.94;44.95;101672.29;112480;1245;22812;-88
2022/03/06 10:12:04;;;;;;;;;49.00;40.50;;;;;21.89;44.65;101670.12;112552;1245;19922;-87
2022/03/06 10:14:30;;;;;;;;;41.00;38.00;;;;;21.83;44.84;101671.04;112574;1244;20176;-87
2022/03/06 10:16:56;;;;;;;;;48.50;38.50;;;;;21.77;44.85;101672.40;112624;1244;19419;-87
2022/03/06 10:19:22;;;;;;;;;48.33;39.00;;;;;21.74;44.67;101665.48;112649;1244;20577;-87
2022/03/06 10:21:48;;;;;;;;;49.00;38.50;;;;;21.70;45.01;101662.27;112611;1245;19351;-87
2022/03/06 10:24:14;;;;;;;;;43.50;38.50;;;;;21.70;44.89;101665.39;112646;1245;20734;-90
2022/03/06 10:26:40;;;;;;;;;47.50;40.00;;;;;21.69;44.80;101664.77;112630;1245;20786;-87
2022/03/06 10:29:06;;;;;;;;;38.67;36.67;;;;;21.68;44.71;101666.13;112619;1245;19062;-89
2022/03/06 10:31:32;;;;;;;;;44.50;40.00;;;;;21.67;44.54;101658.76;112617;1245;19286;-86
2022/03/06 10:33:57;;;;;;;;;48.00;40.00;;;;;21.66;44.62;101660.11;112640;1245;20566;-87
2022/03/06 10:36:23;;;;;;;;;42.00;33.00;;;;;21.65;44.40;101655.89;112647;1245;19869;-87
2022/03/06 10:38:49;;;;;;;;;45.50;35.50;;;;;21.64;44.15;101654.88;112667;1245;24529;-87
2022/03/06 10:41:17;;;;;;;;;40.50;33.50;;;;;21.63;44.01;101653.16;112690;1245;20036;-91
2022/03/06 10:43:43;;;;;;;;;38.00;32.67;;;;;21.64;44.18;101653.27;112633;1245;19600;-87
2022/03/06 10:46:09;;;;;;;;;34.33;29.67;;;;;21.63;43.86;101651.22;112612;1244;19396;-88
2022/03/06 10:48:34;;;;;;;;;44.50;37.00;;;;;21.62;43.77;101646.20;112624;1245;21348;-88
2022/03/06 10:51:00;;;;;;;;;36.00;31.50;;;;;21.61;43.67;101646.44;112633;1245;19460;-87
2022/03/06 10:53:28;;;;;;;;;36.00;32.50;;;;;21.61;43.45;101647.02;112613;1245;21104;-88
2022/03/06 10:55:54;;;;;;;;;39.33;35.00;;;;;21.62;43.38;101640.95;112619;1244;20321;-88